Caribe Navigator — V2PW6 — position and weather

sailwx.info

Track history (hours):
 
Tides and Currents Weather Stations Pressure Air Temp Water Temp Dewpoint Dewpoint Depression Visibility Wind Speed Wind Dir Waves Ship Positions

Caribe Navigator

Last reported at 2016-Dec-02 01:24 UTC. Time now 2016-Dec-05 14:31 UTC.
Position N 25°18' W 080°04'.

Length 100 m; draft 5.4 m.

Type: Cargo ship. MMSI: 305289000.

Date/timePositionNaut miles runAvg speedWind from/ knotsBaromVisibWave heightAir tempDewpointWater temp
2016-Dec-02 01:24N 25°18' W 080°04'910.2
2016-Dec-02 00:33N 25°27' W 080°01'1010.3
2016-Dec-01 23:33N 25°37' W 080°02'1010.4
2016-Dec-01 22:33N 25°47' W 080°03'10 9.9
2016-Dec-01 21:33N 25°57' W 080°03'9 9.1
2016-Dec-01 20:33N 26°06' W 080°07'0 0.2
2016-Dec-01 19:29N 26°05' W 080°07'0 0.0
2016-Dec-01 18:32N 26°05' W 080°07'0 0.0
2016-Dec-01 17:32N 26°05' W 080°07'0 0.0
2016-Dec-01 16:32N 26°05' W 080°07'0 0.0
2016-Dec-01 15:32N 26°05' W 080°07'0 0.0
2016-Dec-01 14:32N 26°05' W 080°07'0 0.0
2016-Dec-01 13:32N 26°05' W 080°07'0 0.0
2016-Dec-01 12:32N 26°05' W 080°07'0 0.0
2016-Dec-01 11:32N 26°05' W 080°07'0 0.0
2016-Dec-01 10:32N 26°05' W 080°07'0 0.0
2016-Dec-01 09:23N 26°05' W 080°07'0 0.0
2016-Dec-01 08:23N 26°05' W 080°07'0 0.0
2016-Dec-01 07:26N 26°05' W 080°07'0 0.0
2016-Dec-01 06:26N 26°05' W 080°07'0 0.0
2016-Dec-01 05:26N 26°05' W 080°07'0 0.0
2016-Dec-01 04:26N 26°05' W 080°07'0 0.0
2016-Dec-01 03:26N 26°05' W 080°07'0 0.0
2016-Dec-01 02:29N 26°05' W 080°07'0 0.0
2016-Dec-01 01:29N 26°05' W 080°07'0 0.0
2016-Dec-01 00:29N 26°05' W 080°07'0 0.0
2016-Nov-30 23:29N 26°05' W 080°07'0 0.0
2016-Nov-30 22:29N 26°05' W 080°07'0 0.0
2016-Nov-30 21:32N 26°05' W 080°07'0 0.0
2016-Nov-30 20:32N 26°05' W 080°07'0 0.0
2016-Nov-30 19:32N 26°05' W 080°07'0 0.0
2016-Nov-30 18:33N 26°05' W 080°07'7 7.5
2016-Nov-30 17:33N 25°59' W 080°04'1313.3
2016-Nov-30 16:34N 25°46' W 080°07'3 2.7
2016-Nov-30 15:32N 25°46' W 080°10'0 0.0
2016-Nov-30 14:32N 25°46' W 080°10'0 0.0
2016-Nov-30 13:30N 25°46' W 080°10'0 0.0
2016-Nov-30 12:33N 25°46' W 080°10'1 1.2
2016-Nov-30 11:33N 25°46' W 080°09'9 9.4
2016-Nov-30 10:33N 25°39' W 080°02'  
2016-Nov-24 20:11N 25°16' W 080°05'711.3
2016-Nov-24 19:33N 25°22' W 080°02'1111.1
2016-Nov-24 18:33N 25°33' W 080°02'1111.0
2016-Nov-24 17:33N 25°44' W 080°02'1110.7
2016-Nov-24 16:33N 25°55' W 080°03'1111.0
2016-Nov-24 15:33N 26°06' W 080°07'0 0.5
2016-Nov-24 14:31N 26°05' W 080°07'0 0.0
2016-Nov-24 13:19N 26°05' W 080°07'0 0.0
2016-Nov-24 12:31N 26°05' W 080°07'0 0.0
2016-Nov-24 11:31N 26°05' W 080°07'0 0.0
2016-Nov-24 10:31N 26°05' W 080°07'0 0.0
2016-Nov-24 09:22N 26°05' W 080°07'0 0.0
2016-Nov-24 08:22N 26°05' W 080°07'0 0.0
2016-Nov-24 07:25N 26°05' W 080°07'0 0.0
2016-Nov-24 06:25N 26°05' W 080°07'0 0.0
2016-Nov-24 05:25N 26°05' W 080°07'0 0.0
2016-Nov-24 04:25N 26°05' W 080°07'0 0.0
2016-Nov-24 03:25N 26°05' W 080°07'0 0.0
2016-Nov-24 02:25N 26°05' W 080°07'0 0.0
2016-Nov-24 01:28N 26°05' W 080°07'0 0.0
2016-Nov-24 00:28N 26°05' W 080°07'0 0.0
2016-Nov-23 23:28N 26°05' W 080°07'0 0.0
2016-Nov-23 22:28N 26°05' W 080°07'0 0.0
2016-Nov-23 21:31N 26°05' W 080°07'0 0.0
2016-Nov-23 20:31N 26°05' W 080°07'0 0.0
2016-Nov-23 19:31N 26°05' W 080°07'0 0.0
2016-Nov-23 18:31N 26°05' W 080°07'0 0.0
2016-Nov-23 17:31N 26°05' W 080°07'0 0.0
2016-Nov-23 16:31N 26°05' W 080°07'0 0.0
2016-Nov-23 15:31N 26°05' W 080°07'0 0.0
2016-Nov-23 14:31N 26°05' W 080°07'0 0.0
2016-Nov-23 13:31N 26°05' W 080°07'0 0.0
2016-Nov-23 12:31N 26°05' W 080°07'0 0.0
2016-Nov-23 11:34N 26°05' W 080°07'0 0.0
2016-Nov-23 10:33N 26°05' W 080°07'0 0.0
2016-Nov-23 09:33N 26°05' W 080°07'0 0.0
2016-Nov-23 08:33N 26°05' W 080°07'0 0.0
2016-Nov-23 07:33N 26°05' W 080°07'0 0.0
2016-Nov-23 06:33N 26°05' W 080°07'0 0.0
2016-Nov-23 03:06N 26°05' W 080°07'0 0.0
2016-Nov-23 02:24N 26°05' W 080°07'0 0.0
2016-Nov-23 00:27N 26°05' W 080°07'0 0.2
2016-Nov-22 23:33N 26°06' W 080°07'9 8.5
2016-Nov-22 22:33N 25°57' W 080°04'12 2.5
2016-Nov-22 17:31N 25°46' W 080°10'0 0.0
2016-Nov-22 16:31N 25°46' W 080°10'0 0.3
2016-Nov-22 15:33N 25°46' W 080°10'9 8.9
2016-Nov-22 14:34N 25°45' W 080°00'1313.2
2016-Nov-22 13:33N 25°36' W 079°49'  
Track history (hours):
 
Tides and Currents Weather Stations Pressure Air Temp Water Temp Dewpoint Dewpoint Depression Visibility Wind Speed Wind Dir Waves Ship Positions

Caribe Navigator

Last reported at 2016-Dec-02 01:24 UTC. Time now 2016-Dec-05 14:31 UTC.
Position N 25°18' W 080°04'.

Length 100 m; draft 5.4 m.

Type: Cargo ship. MMSI: 305289000.

Date/timePositionNaut miles runAvg speedWind from/ knotsBaromVisibWave heightAir tempDewpointWater temp
2016-Dec-02 01:24N 25°18' W 080°04'910.2
2016-Dec-02 00:33N 25°27' W 080°01'1010.3
2016-Dec-01 23:33N 25°37' W 080°02'1010.4
2016-Dec-01 22:33N 25°47' W 080°03'10 9.9
2016-Dec-01 21:33N 25°57' W 080°03'9 9.1
2016-Dec-01 20:33N 26°06' W 080°07'0 0.2
2016-Dec-01 19:29N 26°05' W 080°07'0 0.0
2016-Dec-01 18:32N 26°05' W 080°07'0 0.0
2016-Dec-01 17:32N 26°05' W 080°07'0 0.0
2016-Dec-01 16:32N 26°05' W 080°07'0 0.0
2016-Dec-01 15:32N 26°05' W 080°07'0 0.0
2016-Dec-01 14:32N 26°05' W 080°07'0 0.0
2016-Dec-01 13:32N 26°05' W 080°07'0 0.0
2016-Dec-01 12:32N 26°05' W 080°07'0 0.0
2016-Dec-01 11:32N 26°05' W 080°07'0 0.0
2016-Dec-01 10:32N 26°05' W 080°07'0 0.0
2016-Dec-01 09:23N 26°05' W 080°07'0 0.0
2016-Dec-01 08:23N 26°05' W 080°07'0 0.0
2016-Dec-01 07:26N 26°05' W 080°07'0 0.0
2016-Dec-01 06:26N 26°05' W 080°07'0 0.0
2016-Dec-01 05:26N 26°05' W 080°07'0 0.0
2016-Dec-01 04:26N 26°05' W 080°07'0 0.0
2016-Dec-01 03:26N 26°05' W 080°07'0 0.0
2016-Dec-01 02:29N 26°05' W 080°07'0 0.0
2016-Dec-01 01:29N 26°05' W 080°07'0 0.0
2016-Dec-01 00:29N 26°05' W 080°07'0 0.0
2016-Nov-30 23:29N 26°05' W 080°07'0 0.0
2016-Nov-30 22:29N 26°05' W 080°07'0 0.0
2016-Nov-30 21:32N 26°05' W 080°07'0 0.0
2016-Nov-30 20:32N 26°05' W 080°07'0 0.0
2016-Nov-30 19:32N 26°05' W 080°07'0 0.0
2016-Nov-30 18:33N 26°05' W 080°07'7 7.5
2016-Nov-30 17:33N 25°59' W 080°04'1313.3
2016-Nov-30 16:34N 25°46' W 080°07'3 2.7
2016-Nov-30 15:32N 25°46' W 080°10'0 0.0
2016-Nov-30 14:32N 25°46' W 080°10'0 0.0
2016-Nov-30 13:30N 25°46' W 080°10'0 0.0
2016-Nov-30 12:33N 25°46' W 080°10'1 1.2
2016-Nov-30 11:33N 25°46' W 080°09'9 9.4
2016-Nov-30 10:33N 25°39' W 080°02'  
2016-Nov-24 20:11N 25°16' W 080°05'711.3
2016-Nov-24 19:33N 25°22' W 080°02'1111.1
2016-Nov-24 18:33N 25°33' W 080°02'1111.0
2016-Nov-24 17:33N 25°44' W 080°02'1110.7
2016-Nov-24 16:33N 25°55' W 080°03'1111.0
2016-Nov-24 15:33N 26°06' W 080°07'0 0.5
2016-Nov-24 14:31N 26°05' W 080°07'0 0.0
2016-Nov-24 13:19N 26°05' W 080°07'0 0.0
2016-Nov-24 12:31N 26°05' W 080°07'0 0.0
2016-Nov-24 11:31N 26°05' W 080°07'0 0.0
2016-Nov-24 10:31N 26°05' W 080°07'0 0.0
2016-Nov-24 09:22N 26°05' W 080°07'0 0.0
2016-Nov-24 08:22N 26°05' W 080°07'0 0.0
2016-Nov-24 07:25N 26°05' W 080°07'0 0.0
2016-Nov-24 06:25N 26°05' W 080°07'0 0.0
2016-Nov-24 05:25N 26°05' W 080°07'0 0.0
2016-Nov-24 04:25N 26°05' W 080°07'0 0.0
2016-Nov-24 03:25N 26°05' W 080°07'0 0.0
2016-Nov-24 02:25N 26°05' W 080°07'0 0.0
2016-Nov-24 01:28N 26°05' W 080°07'0 0.0
2016-Nov-24 00:28N 26°05' W 080°07'0 0.0
2016-Nov-23 23:28N 26°05' W 080°07'0 0.0
2016-Nov-23 22:28N 26°05' W 080°07'0 0.0
2016-Nov-23 21:31N 26°05' W 080°07'0 0.0
2016-Nov-23 20:31N 26°05' W 080°07'0 0.0
2016-Nov-23 19:31N 26°05' W 080°07'0 0.0
2016-Nov-23 18:31N 26°05' W 080°07'0 0.0
2016-Nov-23 17:31N 26°05' W 080°07'0 0.0
2016-Nov-23 16:31N 26°05' W 080°07'0 0.0
2016-Nov-23 15:31N 26°05' W 080°07'0 0.0
2016-Nov-23 14:31N 26°05' W 080°07'0 0.0
2016-Nov-23 13:31N 26°05' W 080°07'0 0.0
2016-Nov-23 12:31N 26°05' W 080°07'0 0.0
2016-Nov-23 11:34N 26°05' W 080°07'0 0.0
2016-Nov-23 10:33N 26°05' W 080°07'0 0.0
2016-Nov-23 09:33N 26°05' W 080°07'0 0.0
2016-Nov-23 08:33N 26°05' W 080°07'0 0.0
2016-Nov-23 07:33N 26°05' W 080°07'0 0.0
2016-Nov-23 06:33N 26°05' W 080°07'0 0.0
2016-Nov-23 03:06N 26°05' W 080°07'0 0.0
2016-Nov-23 02:24N 26°05' W 080°07'0 0.0
2016-Nov-23 00:27N 26°05' W 080°07'0 0.2
2016-Nov-22 23:33N 26°06' W 080°07'9 8.5
2016-Nov-22 22:33N 25°57' W 080°04'12 2.5
2016-Nov-22 17:31N 25°46' W 080°10'0 0.0
2016-Nov-22 16:31N 25°46' W 080°10'0 0.3
2016-Nov-22 15:33N 25°46' W 080°10'9 8.9
2016-Nov-22 14:34N 25°45' W 080°00'1313.2
2016-Nov-22 13:33N 25°36' W 079°49'  

Dump ship's entire track history